sensor_id;sensor_type;location;lat;lon;timestamp;temperature;humidity
9118;DHT22;4594;50.994;7.126;2022-09-17T00:01:14;14.00;56.40
9118;DHT22;4594;50.994;7.126;2022-09-17T00:03:42;14.00;56.20
9118;DHT22;4594;50.994;7.126;2022-09-17T00:06:11;14.00;56.40
9118;DHT22;4594;50.994;7.126;2022-09-17T00:08:38;14.00;56.30
9118;DHT22;4594;50.994;7.126;2022-09-17T00:11:14;14.00;56.30
9118;DHT22;4594;50.994;7.126;2022-09-17T00:13:42;14.00;55.70
9118;DHT22;4594;50.994;7.126;2022-09-17T00:16:10;14.00;56.30
9118;DHT22;4594;50.994;7.126;2022-09-17T00:18:36;14.00;56.50
9118;DHT22;4594;50.994;7.126;2022-09-17T00:21:06;14.00;56.50
9118;DHT22;4594;50.994;7.126;2022-09-17T00:23:40;14.00;56.50
9118;DHT22;4594;50.994;7.126;2022-09-17T00:26:06;14.10;56.60
9118;DHT22;4594;50.994;7.126;2022-09-17T00:28:32;14.00;56.50
9118;DHT22;4594;50.994;7.126;2022-09-17T00:30:58;14.10;56.50
9118;DHT22;4594;50.994;7.126;2022-09-17T00:33:23;14.10;56.50
9118;DHT22;4594;50.994;7.126;2022-09-17T00:36:00;14.10;56.40
9118;DHT22;4594;50.994;7.126;2022-09-17T00:38:27;14.10;55.50
9118;DHT22;4594;50.994;7.126;2022-09-17T00:40:54;14.10;56.50
9118;DHT22;4594;50.994;7.126;2022-09-17T00:43:43;14.10;56.40
9118;DHT22;4594;50.994;7.126;2022-09-17T00:46:38;14.10;55.40
9118;DHT22;4594;50.994;7.126;2022-09-17T00:49:15;14.10;55.30
9118;DHT22;4594;50.994;7.126;2022-09-17T00:51:48;14.10;56.10
9118;DHT22;4594;50.994;7.126;2022-09-17T00:54:21;14.10;56.10
9118;DHT22;4594;50.994;7.126;2022-09-17T00:56:49;14.10;56.50
9118;DHT22;4594;50.994;7.126;2022-09-17T00:59:17;14.10;56.20
9118;DHT22;4594;50.994;7.126;2022-09-17T01:01:44;14.10;56.40
9118;DHT22;4594;50.994;7.126;2022-09-17T01:04:18;14.10;56.50
9118;DHT22;4594;50.994;7.126;2022-09-17T01:06:49;14.10;55.80
9118;DHT22;4594;50.994;7.126;2022-09-17T01:10:06;14.10;56.70
9118;DHT22;4594;50.994;7.126;2022-09-17T01:22:15;14.20;55.90
9118;DHT22;4594;50.994;7.126;2022-09-17T01:30:56;14.10;55.70
9118;DHT22;4594;50.994;7.126;2022-09-17T01:41:57;14.10;56.40
9118;DHT22;4594;50.994;7.126;2022-09-17T01:47:23;14.00;57.10
9118;DHT22;4594;50.994;7.126;2022-09-17T01:49:59;14.00;57.00
9118;DHT22;4594;50.994;7.126;2022-09-17T01:52:28;14.00;57.10
9118;DHT22;4594;50.994;7.126;2022-09-17T01:55:00;14.00;57.50
9118;DHT22;4594;50.994;7.126;2022-09-17T01:58:22;13.90;57.30
9118;DHT22;4594;50.994;7.126;2022-09-17T02:00:50;13.90;56.80
9118;DHT22;4594;50.994;7.126;2022-09-17T02:06:28;13.80;57.40
9118;DHT22;4594;50.994;7.126;2022-09-17T02:09:01;13.80;57.50
9118;DHT22;4594;50.994;7.126;2022-09-17T02:11:43;13.80;57.70
9118;DHT22;4594;50.994;7.126;2022-09-17T02:14:19;13.80;58.00
9118;DHT22;4594;50.994;7.126;2022-09-17T02:16:53;13.80;57.90
9118;DHT22;4594;50.994;7.126;2022-09-17T02:19:27;13.80;58.10
9118;DHT22;4594;50.994;7.126;2022-09-17T02:22:13;13.80;58.20
9118;DHT22;4594;50.994;7.126;2022-09-17T02:30:16;13.70;58.70
9118;DHT22;4594;50.994;7.126;2022-09-17T02:32:42;13.70;58.80
9118;DHT22;4594;50.994;7.126;2022-09-17T02:35:10;13.70;58.90
9118;DHT22;4594;50.994;7.126;2022-09-17T02:37:38;13.80;59.00
9118;DHT22;4594;50.994;7.126;2022-09-17T02:40:06;13.80;59.10
9118;DHT22;4594;50.994;7.126;2022-09-17T02:48:41;13.80;58.40
9118;DHT22;4594;50.994;7.126;2022-09-17T02:51:43;13.80;58.40
9118;DHT22;4594;50.994;7.126;2022-09-17T03:00:05;13.80;58.70
9118;DHT22;4594;50.994;7.126;2022-09-17T03:05:26;13.80;58.30
9118;DHT22;4594;50.994;7.126;2022-09-17T03:07:55;13.80;59.30
9118;DHT22;4594;50.994;7.126;2022-09-17T03:10:22;13.80;59.30
9118;DHT22;4594;50.994;7.126;2022-09-17T03:12:48;13.80;59.40
9118;DHT22;4594;50.994;7.126;2022-09-17T03:15:14;13.80;59.70
9118;DHT22;4594;50.994;7.126;2022-09-17T03:17:39;13.80;59.30
9118;DHT22;4594;50.994;7.126;2022-09-17T03:20:05;13.80;59.40
9118;DHT22;4594;50.994;7.126;2022-09-17T03:22:31;13.80;59.40
9118;DHT22;4594;50.994;7.126;2022-09-17T03:24:57;13.80;59.40
9118;DHT22;4594;50.994;7.126;2022-09-17T03:27:22;13.80;59.40
9118;DHT22;4594;50.994;7.126;2022-09-17T03:29:48;13.80;59.40
9118;DHT22;4594;50.994;7.126;2022-09-17T03:32:14;13.80;59.50
9118;DHT22;4594;50.994;7.126;2022-09-17T03:34:39;13.80;59.60
9118;DHT22;4594;50.994;7.126;2022-09-17T03:37:05;13.80;59.60
9118;DHT22;4594;50.994;7.126;2022-09-17T03:39:31;13.80;59.70
9118;DHT22;4594;50.994;7.126;2022-09-17T03:41:56;13.80;59.70
9118;DHT22;4594;50.994;7.126;2022-09-17T03:44:22;13.70;59.60
9118;DHT22;4594;50.994;7.126;2022-09-17T03:46:48;13.80;59.60
9118;DHT22;4594;50.994;7.126;2022-09-17T03:49:14;13.80;59.60
9118;DHT22;4594;50.994;7.126;2022-09-17T03:51:40;13.80;59.60
9118;DHT22;4594;50.994;7.126;2022-09-17T03:54:06;13.70;59.60
9118;DHT22;4594;50.994;7.126;2022-09-17T03:56:32;13.80;59.60
9118;DHT22;4594;50.994;7.126;2022-09-17T03:58:59;13.70;59.50
9118;DHT22;4594;50.994;7.126;2022-09-17T04:01:26;13.70;59.40
9118;DHT22;4594;50.994;7.126;2022-09-17T04:03:52;13.70;59.30
9118;DHT22;4594;50.994;7.126;2022-09-17T04:06:19;13.70;59.30
9118;DHT22;4594;50.994;7.126;2022-09-17T04:08:44;13.70;59.30
9118;DHT22;4594;50.994;7.126;2022-09-17T04:11:11;13.70;59.40
9118;DHT22;4594;50.994;7.126;2022-09-17T04:13:37;13.70;59.40
9118;DHT22;4594;50.994;7.126;2022-09-17T04:16:03;13.60;59.40
9118;DHT22;4594;50.994;7.126;2022-09-17T04:18:29;13.60;59.40
9118;DHT22;4594;50.994;7.126;2022-09-17T04:20:55;13.60;59.40
9118;DHT22;4594;50.994;7.126;2022-09-17T04:23:21;13.60;59.40
9118;DHT22;4594;50.994;7.126;2022-09-17T04:25:47;13.60;59.40
9118;DHT22;4594;50.994;7.126;2022-09-17T04:28:13;13.60;59.40
9118;DHT22;4594;50.994;7.126;2022-09-17T04:30:40;13.60;59.40
9118;DHT22;4594;50.994;7.126;2022-09-17T04:33:08;13.60;59.50
9118;DHT22;4594;50.994;7.126;2022-09-17T04:35:34;13.60;59.50
9118;DHT22;4594;50.994;7.126;2022-09-17T04:38:00;13.60;59.50
9118;DHT22;4594;50.994;7.126;2022-09-17T04:40:26;13.50;59.50
9118;DHT22;4594;50.994;7.126;2022-09-17T04:42:53;13.50;59.60
9118;DHT22;4594;50.994;7.126;2022-09-17T04:45:20;13.50;59.60
9118;DHT22;4594;50.994;7.126;2022-09-17T04:47:46;13.50;59.70
9118;DHT22;4594;50.994;7.126;2022-09-17T04:50:12;13.50;59.90
9118;DHT22;4594;50.994;7.126;2022-09-17T04:52:41;13.50;60.00
9118;DHT22;4594;50.994;7.126;2022-09-17T04:55:08;13.50;59.80
9118;DHT22;4594;50.994;7.126;2022-09-17T04:57:34;13.60;60.30
9118;DHT22;4594;50.994;7.126;2022-09-17T05:00:00;13.60;60.40
9118;DHT22;4594;50.994;7.126;2022-09-17T05:02:26;13.60;60.40
9118;DHT22;4594;50.994;7.126;2022-09-17T05:04:52;13.60;60.50
9118;DHT22;4594;50.994;7.126;2022-09-17T05:07:17;13.60;60.60
9118;DHT22;4594;50.994;7.126;2022-09-17T05:09:43;13.60;60.40
9118;DHT22;4594;50.994;7.126;2022-09-17T05:12:09;13.60;60.30
9118;DHT22;4594;50.994;7.126;2022-09-17T05:14:34;13.60;60.30
9118;DHT22;4594;50.994;7.126;2022-09-17T05:17:00;13.60;60.20
9118;DHT22;4594;50.994;7.126;2022-09-17T05:19:26;13.60;60.20
9118;DHT22;4594;50.994;7.126;2022-09-17T05:21:51;13.60;60.20
9118;DHT22;4594;50.994;7.126;2022-09-17T05:24:17;13.60;60.30
9118;DHT22;4594;50.994;7.126;2022-09-17T05:26:42;13.60;60.30
9118;DHT22;4594;50.994;7.126;2022-09-17T05:29:08;13.60;60.30
9118;DHT22;4594;50.994;7.126;2022-09-17T05:31:35;13.60;60.20
9118;DHT22;4594;50.994;7.126;2022-09-17T05:34:00;13.60;60.10
9118;DHT22;4594;50.994;7.126;2022-09-17T05:36:26;13.60;59.90
9118;DHT22;4594;50.994;7.126;2022-09-17T05:38:52;13.60;59.70
9118;DHT22;4594;50.994;7.126;2022-09-17T05:41:17;13.60;59.70
9118;DHT22;4594;50.994;7.126;2022-09-17T05:43:43;13.60;59.50
9118;DHT22;4594;50.994;7.126;2022-09-17T05:46:09;13.60;59.40
9118;DHT22;4594;50.994;7.126;2022-09-17T05:48:35;13.50;59.20
9118;DHT22;4594;50.994;7.126;2022-09-17T05:51:01;13.50;59.40
9118;DHT22;4594;50.994;7.126;2022-09-17T05:53:27;13.50;59.50
9118;DHT22;4594;50.994;7.126;2022-09-17T05:55:56;13.50;59.70
9118;DHT22;4594;50.994;7.126;2022-09-17T05:58:23;13.50;59.60
9118;DHT22;4594;50.994;7.126;2022-09-17T06:00:49;13.50;60.20
9118;DHT22;4594;50.994;7.126;2022-09-17T06:03:17;13.50;60.40
9118;DHT22;4594;50.994;7.126;2022-09-17T06:05:55;13.50;60.30
9118;DHT22;4594;50.994;7.126;2022-09-17T06:08:23;13.60;59.90
9118;DHT22;4594;50.994;7.126;2022-09-17T06:10:50;13.60;61.00
9118;DHT22;4594;50.994;7.126;2022-09-17T06:13:17;13.80;61.70
9118;DHT22;4594;50.994;7.126;2022-09-17T06:15:51;13.70;61.90
9118;DHT22;4594;50.994;7.126;2022-09-17T06:18:18;13.70;61.60
9118;DHT22;4594;50.994;7.126;2022-09-17T06:20:52;13.80;62.80
9118;DHT22;4594;50.994;7.126;2022-09-17T06:23:19;13.90;62.40
9118;DHT22;4594;50.994;7.126;2022-09-17T06:25:54;13.90;63.70
9118;DHT22;4594;50.994;7.126;2022-09-17T06:28:21;14.10;63.70
9118;DHT22;4594;50.994;7.126;2022-09-17T06:30:47;14.20;65.30
9118;DHT22;4594;50.994;7.126;2022-09-17T06:33:13;14.30;65.50
9118;DHT22;4594;50.994;7.126;2022-09-17T06:35:40;14.40;65.50
9118;DHT22;4594;50.994;7.126;2022-09-17T06:38:06;14.50;65.50
9118;DHT22;4594;50.994;7.126;2022-09-17T06:40:32;14.60;65.80
9118;DHT22;4594;50.994;7.126;2022-09-17T06:42:58;14.70;66.30
9118;DHT22;4594;50.994;7.126;2022-09-17T06:45:25;14.90;66.20
9118;DHT22;4594;50.994;7.126;2022-09-17T06:47:51;14.90;65.70
9118;DHT22;4594;50.994;7.126;2022-09-17T06:50:17;15.10;65.60
9118;DHT22;4594;50.994;7.126;2022-09-17T06:52:49;15.20;65.50
9118;DHT22;4594;50.994;7.126;2022-09-17T06:55:16;15.30;64.10
9118;DHT22;4594;50.994;7.126;2022-09-17T06:57:43;15.30;65.20
9118;DHT22;4594;50.994;7.126;2022-09-17T07:00:10;15.40;64.90
9118;DHT22;4594;50.994;7.126;2022-09-17T07:02:37;15.50;64.50
9118;DHT22;4594;50.994;7.126;2022-09-17T07:05:03;15.50;63.90
9118;DHT22;4594;50.994;7.126;2022-09-17T07:07:29;15.50;63.30
9118;DHT22;4594;50.994;7.126;2022-09-17T07:09:55;15.60;62.90
9118;DHT22;4594;50.994;7.126;2022-09-17T07:12:21;15.50;62.30
9118;DHT22;4594;50.994;7.126;2022-09-17T07:14:46;15.60;62.00
9118;DHT22;4594;50.994;7.126;2022-09-17T07:17:13;15.50;61.20
9118;DHT22;4594;50.994;7.126;2022-09-17T07:19:39;15.50;60.50
9118;DHT22;4594;50.994;7.126;2022-09-17T07:22:05;15.50;60.00
9118;DHT22;4594;50.994;7.126;2022-09-17T07:24:31;15.40;59.80
9118;DHT22;4594;50.994;7.126;2022-09-17T07:26:57;15.40;59.90
9118;DHT22;4594;50.994;7.126;2022-09-17T07:29:23;15.40;60.20
9118;DHT22;4594;50.994;7.126;2022-09-17T07:31:54;15.40;61.00
9118;DHT22;4594;50.994;7.126;2022-09-17T07:34:20;15.50;63.30
9118;DHT22;4594;50.994;7.126;2022-09-17T07:36:46;15.60;65.70
9118;DHT22;4594;50.994;7.126;2022-09-17T07:39:12;15.80;66.50
9118;DHT22;4594;50.994;7.126;2022-09-17T07:41:39;16.00;66.10
9118;DHT22;4594;50.994;7.126;2022-09-17T07:44:04;16.20;64.90
9118;DHT22;4594;50.994;7.126;2022-09-17T07:46:34;16.30;64.10
9118;DHT22;4594;50.994;7.126;2022-09-17T07:49:00;16.40;63.40
9118;DHT22;4594;50.994;7.126;2022-09-17T07:51:27;16.40;62.90
9118;DHT22;4594;50.994;7.126;2022-09-17T07:53:57;16.50;63.00
9118;DHT22;4594;50.994;7.126;2022-09-17T07:56:25;16.60;63.20
9118;DHT22;4594;50.994;7.126;2022-09-17T07:58:52;16.70;65.00
9118;DHT22;4594;50.994;7.126;2022-09-17T08:01:18;16.90;65.50
9118;DHT22;4594;50.994;7.126;2022-09-17T08:03:51;17.10;65.00
9118;DHT22;4594;50.994;7.126;2022-09-17T08:06:20;17.20;63.20
9118;DHT22;4594;50.994;7.126;2022-09-17T08:08:48;17.30;63.80
9118;DHT22;4594;50.994;7.126;2022-09-17T08:11:17;17.40;64.90
9118;DHT22;4594;50.994;7.126;2022-09-17T08:13:47;17.60;65.00
9118;DHT22;4594;50.994;7.126;2022-09-17T08:16:14;17.80;66.40
9118;DHT22;4594;50.994;7.126;2022-09-17T08:18:42;18.10;68.70
9118;DHT22;4594;50.994;7.126;2022-09-17T08:21:11;18.40;70.20
9118;DHT22;4594;50.994;7.126;2022-09-17T08:23:39;18.80;69.90
9118;DHT22;4594;50.994;7.126;2022-09-17T08:26:08;19.10;70.70
9118;DHT22;4594;50.994;7.126;2022-09-17T08:28:37;19.60;71.90
9118;DHT22;4594;50.994;7.126;2022-09-17T08:31:05;20.10;74.00
9118;DHT22;4594;50.994;7.126;2022-09-17T08:33:37;20.60;73.30
9118;DHT22;4594;50.994;7.126;2022-09-17T08:36:06;21.10;68.90
9118;DHT22;4594;50.994;7.126;2022-09-17T08:38:35;21.40;67.30
9118;DHT22;4594;50.994;7.126;2022-09-17T08:44:01;21.80;61.30
9118;DHT22;4594;50.994;7.126;2022-09-17T08:47:03;22.10;60.20
9118;DHT22;4594;50.994;7.126;2022-09-17T08:49:52;22.30;58.00
9118;DHT22;4594;50.994;7.126;2022-09-17T08:58:22;22.40;55.50
9118;DHT22;4594;50.994;7.126;2022-09-17T09:01:20;22.40;54.40
9118;DHT22;4594;50.994;7.126;2022-09-17T09:06:47;22.60;55.90
9118;DHT22;4594;50.994;7.126;2022-09-17T09:09:24;22.90;57.90
9118;DHT22;4594;50.994;7.126;2022-09-17T09:12:02;23.10;56.20
9118;DHT22;4594;50.994;7.126;2022-09-17T09:14:39;23.30;55.60
9118;DHT22;4594;50.994;7.126;2022-09-17T09:17:16;23.40;53.90
9118;DHT22;4594;50.994;7.126;2022-09-17T09:19:44;23.40;53.20
9118;DHT22;4594;50.994;7.126;2022-09-17T09:22:53;23.20;52.70
9118;DHT22;4594;50.994;7.126;2022-09-17T09:25:18;23.10;52.00
9118;DHT22;4594;50.994;7.126;2022-09-17T09:33:39;22.80;52.30
9118;DHT22;4594;50.994;7.126;2022-09-17T09:36:10;23.00;55.20
9118;DHT22;4594;50.994;7.126;2022-09-17T09:38:54;23.10;53.40
9118;DHT22;4594;50.994;7.126;2022-09-17T09:41:30;23.20;52.60
9118;DHT22;4594;50.994;7.126;2022-09-17T09:44:04;23.50;54.60
9118;DHT22;4594;50.994;7.126;2022-09-17T09:55:18;24.60;51.70
9118;DHT22;4594;50.994;7.126;2022-09-17T09:58:03;24.60;51.50
9118;DHT22;4594;50.994;7.126;2022-09-17T10:00:42;24.70;51.50
9118;DHT22;4594;50.994;7.126;2022-09-17T10:03:30;24.70;52.80
9118;DHT22;4594;50.994;7.126;2022-09-17T10:06:07;24.80;49.70
9118;DHT22;4594;50.994;7.126;2022-09-17T10:09:27;24.80;49.70
9118;DHT22;4594;50.994;7.126;2022-09-17T10:11:29;24.80;48.80
9118;DHT22;4594;50.994;7.126;2022-09-17T10:16:48;24.80;49.20
9118;DHT22;4594;50.994;7.126;2022-09-17T10:19:20;25.00;53.80
9118;DHT22;4594;50.994;7.126;2022-09-17T10:21:50;25.40;52.00
9118;DHT22;4594;50.994;7.126;2022-09-17T10:24:28;25.80;53.20
9118;DHT22;4594;50.994;7.126;2022-09-17T10:27:04;25.90;48.90
9118;DHT22;4594;50.994;7.126;2022-09-17T10:29:48;25.80;47.70
9118;DHT22;4594;50.994;7.126;2022-09-17T10:32:20;25.60;46.40
9118;DHT22;4594;50.994;7.126;2022-09-17T10:37:44;25.00;44.90
9118;DHT22;4594;50.994;7.126;2022-09-17T10:40:25;24.70;44.30
9118;DHT22;4594;50.994;7.126;2022-09-17T10:45:42;24.10;44.50
9118;DHT22;4594;50.994;7.126;2022-09-17T10:48:20;23.90;45.40
9118;DHT22;4594;50.994;7.126;2022-09-17T10:50:51;23.50;44.30
9118;DHT22;4594;50.994;7.126;2022-09-17T10:53:19;23.40;44.70
9118;DHT22;4594;50.994;7.126;2022-09-17T11:02:25;22.80;44.20
9118;DHT22;4594;50.994;7.126;2022-09-17T11:08:16;22.60;45.30
9118;DHT22;4594;50.994;7.126;2022-09-17T11:11:10;22.40;45.70
9118;DHT22;4594;50.994;7.126;2022-09-17T11:17:02;22.30;46.40
9118;DHT22;4594;50.994;7.126;2022-09-17T11:25:25;21.90;45.50
9118;DHT22;4594;50.994;7.126;2022-09-17T11:31:24;21.70;44.30
9118;DHT22;4594;50.994;7.126;2022-09-17T11:36:53;21.50;43.70
9118;DHT22;4594;50.994;7.126;2022-09-17T11:39:44;21.40;44.50
9118;DHT22;4594;50.994;7.126;2022-09-17T11:42:18;21.30;44.30
9118;DHT22;4594;50.994;7.126;2022-09-17T11:45:00;21.10;44.80
9118;DHT22;4594;50.994;7.126;2022-09-17T11:47:35;21.10;44.50
9118;DHT22;4594;50.994;7.126;2022-09-17T11:53:03;21.00;44.20
9118;DHT22;4594;50.994;7.126;2022-09-17T11:55:46;20.90;43.70
9118;DHT22;4594;50.994;7.126;2022-09-17T12:01:44;20.80;43.90
9118;DHT22;4594;50.994;7.126;2022-09-17T12:10:07;20.40;45.10
9118;DHT22;4594;50.994;7.126;2022-09-17T12:15:46;20.00;44.40
9118;DHT22;4594;50.994;7.126;2022-09-17T12:21:20;19.60;45.10
9118;DHT22;4594;50.994;7.126;2022-09-17T12:27:01;19.20;45.60
9118;DHT22;4594;50.994;7.126;2022-09-17T12:29:43;19.00;45.40
9118;DHT22;4594;50.994;7.126;2022-09-17T12:35:20;18.80;46.10
9118;DHT22;4594;50.994;7.126;2022-09-17T12:41:51;18.60;46.70
9118;DHT22;4594;50.994;7.126;2022-09-17T12:45:00;18.60;47.10
9118;DHT22;4594;50.994;7.126;2022-09-17T12:47:56;18.60;47.20
9118;DHT22;4594;50.994;7.126;2022-09-17T12:53:53;18.50;48.10
9118;DHT22;4594;50.994;7.126;2022-09-17T12:56:47;18.50;48.60
9118;DHT22;4594;50.994;7.126;2022-09-17T12:59:35;18.60;49.10
9118;DHT22;4594;50.994;7.126;2022-09-17T13:02:26;18.70;50.00
9118;DHT22;4594;50.994;7.126;2022-09-17T13:05:20;18.80;49.40
9118;DHT22;4594;50.994;7.126;2022-09-17T13:14:37;19.00;48.70
9118;DHT22;4594;50.994;7.126;2022-09-17T13:23:42;18.80;47.30
9118;DHT22;4594;50.994;7.126;2022-09-17T13:26:12;18.60;47.10
9118;DHT22;4594;50.994;7.126;2022-09-17T13:28:45;18.40;48.00
9118;DHT22;4594;50.994;7.126;2022-09-17T13:31:17;18.30;48.40
9118;DHT22;4594;50.994;7.126;2022-09-17T13:34:27;18.10;48.70
9118;DHT22;4594;50.994;7.126;2022-09-17T13:36:59;17.90;47.50
9118;DHT22;4594;50.994;7.126;2022-09-17T13:42:17;17.70;48.00
9118;DHT22;4594;50.994;7.126;2022-09-17T13:44:51;17.50;47.70
9118;DHT22;4594;50.994;7.126;2022-09-17T13:47:51;17.40;48.40
9118;DHT22;4594;50.994;7.126;2022-09-17T13:53:16;17.10;48.70
9118;DHT22;4594;50.994;7.126;2022-09-17T13:55:54;17.00;49.00
9118;DHT22;4594;50.994;7.126;2022-09-17T14:01:10;16.80;49.60
9118;DHT22;4594;50.994;7.126;2022-09-17T14:19:23;16.30;51.10
9118;DHT22;4594;50.994;7.126;2022-09-17T14:30:19;16.20;51.50
9118;DHT22;4594;50.994;7.126;2022-09-17T14:32:55;16.20;51.40
9118;DHT22;4594;50.994;7.126;2022-09-17T14:35:38;16.10;52.40
9118;DHT22;4594;50.994;7.126;2022-09-17T14:41:15;16.30;54.00
9118;DHT22;4594;50.994;7.126;2022-09-17T14:49:46;16.50;53.70
9118;DHT22;4594;50.994;7.126;2022-09-17T14:52:31;16.60;53.60
9118;DHT22;4594;50.994;7.126;2022-09-17T14:55:22;16.60;53.50
9118;DHT22;4594;50.994;7.126;2022-09-17T14:57:57;16.60;53.50
9118;DHT22;4594;50.994;7.126;2022-09-17T15:00:37;16.60;54.10
9118;DHT22;4594;50.994;7.126;2022-09-17T15:03:03;16.60;53.30
9118;DHT22;4594;50.994;7.126;2022-09-17T15:05:33;16.60;53.90
9118;DHT22;4594;50.994;7.126;2022-09-17T15:10:52;16.50;53.00
9118;DHT22;4594;50.994;7.126;2022-09-17T15:13:31;16.40;52.50
9118;DHT22;4594;50.994;7.126;2022-09-17T15:16:05;16.40;53.20
9118;DHT22;4594;50.994;7.126;2022-09-17T15:18:51;16.40;53.60
9118;DHT22;4594;50.994;7.126;2022-09-17T15:21:38;16.30;52.90
9118;DHT22;4594;50.994;7.126;2022-09-17T15:24:38;16.30;52.50
9118;DHT22;4594;50.994;7.126;2022-09-17T15:27:28;16.30;52.30
9118;DHT22;4594;50.994;7.126;2022-09-17T15:30:12;16.30;52.30
9118;DHT22;4594;50.994;7.126;2022-09-17T15:33:02;16.20;52.60
9118;DHT22;4594;50.994;7.126;2022-09-17T15:35:33;16.10;52.00
9118;DHT22;4594;50.994;7.126;2022-09-17T15:38:01;16.10;53.10
9118;DHT22;4594;50.994;7.126;2022-09-17T15:40:43;16.00;52.90
9118;DHT22;4594;50.994;7.126;2022-09-17T15:43:20;16.00;53.00
9118;DHT22;4594;50.994;7.126;2022-09-17T15:45:49;15.90;52.00
9118;DHT22;4594;50.994;7.126;2022-09-17T15:51:00;15.90;52.30
9118;DHT22;4594;50.994;7.126;2022-09-17T15:53:29;15.80;52.90
9118;DHT22;4594;50.994;7.126;2022-09-17T16:09:12;15.80;53.40
9118;DHT22;4594;50.994;7.126;2022-09-17T16:12:11;15.80;53.30
9118;DHT22;4594;50.994;7.126;2022-09-17T16:14:42;15.90;54.40
9118;DHT22;4594;50.994;7.126;2022-09-17T16:19:53;15.90;52.70
9118;DHT22;4594;50.994;7.126;2022-09-17T16:22:20;15.90;53.70
9118;DHT22;4594;50.994;7.126;2022-09-17T16:24:46;15.90;53.50
9118;DHT22;4594;50.994;7.126;2022-09-17T16:27:18;15.90;53.50
9118;DHT22;4594;50.994;7.126;2022-09-17T16:29:48;15.90;52.50
9118;DHT22;4594;50.994;7.126;2022-09-17T16:32:15;15.90;52.80
9118;DHT22;4594;50.994;7.126;2022-09-17T16:34:41;15.80;52.70
9118;DHT22;4594;50.994;7.126;2022-09-17T16:37:08;15.80;52.60
9118;DHT22;4594;50.994;7.126;2022-09-17T16:39:35;15.80;52.40
9118;DHT22;4594;50.994;7.126;2022-09-17T16:42:02;15.80;52.60
9118;DHT22;4594;50.994;7.126;2022-09-17T16:44:28;15.80;52.60
9118;DHT22;4594;50.994;7.126;2022-09-17T16:46:53;15.80;52.70
9118;DHT22;4594;50.994;7.126;2022-09-17T16:49:19;15.70;52.40
9118;DHT22;4594;50.994;7.126;2022-09-17T16:51:45;15.80;52.60
9118;DHT22;4594;50.994;7.126;2022-09-17T16:54:10;15.80;52.40
9118;DHT22;4594;50.994;7.126;2022-09-17T16:56:36;15.80;52.30
9118;DHT22;4594;50.994;7.126;2022-09-17T16:59:01;15.70;51.90
9118;DHT22;4594;50.994;7.126;2022-09-17T17:01:27;15.70;51.90
9118;DHT22;4594;50.994;7.126;2022-09-17T17:03:53;15.70;51.70
9118;DHT22;4594;50.994;7.126;2022-09-17T17:06:21;15.70;51.50
9118;DHT22;4594;50.994;7.126;2022-09-17T17:08:47;15.70;51.20
9118;DHT22;4594;50.994;7.126;2022-09-17T17:11:13;15.60;51.30
9118;DHT22;4594;50.994;7.126;2022-09-17T17:13:40;15.60;51.00
9118;DHT22;4594;50.994;7.126;2022-09-17T17:16:12;15.60;50.60
9118;DHT22;4594;50.994;7.126;2022-09-17T17:18:42;15.60;50.20
9118;DHT22;4594;50.994;7.126;2022-09-17T17:21:10;15.50;50.00
9118;DHT22;4594;50.994;7.126;2022-09-17T17:23:37;15.60;50.40
9118;DHT22;4594;50.994;7.126;2022-09-17T17:26:02;15.40;50.20
9118;DHT22;4594;50.994;7.126;2022-09-17T17:28:35;15.40;50.10
9118;DHT22;4594;50.994;7.126;2022-09-17T17:31:01;15.30;49.20
9118;DHT22;4594;50.994;7.126;2022-09-17T17:33:28;15.30;49.90
9118;DHT22;4594;50.994;7.126;2022-09-17T17:35:54;15.20;50.00
9118;DHT22;4594;50.994;7.126;2022-09-17T17:38:19;15.20;50.20
9118;DHT22;4594;50.994;7.126;2022-09-17T17:40:45;15.10;50.10
9118;DHT22;4594;50.994;7.126;2022-09-17T17:43:11;15.00;50.10
9118;DHT22;4594;50.994;7.126;2022-09-17T17:45:38;14.90;50.00
9118;DHT22;4594;50.994;7.126;2022-09-17T17:48:04;14.80;49.90
9118;DHT22;4594;50.994;7.126;2022-09-17T17:50:31;14.70;49.90
9118;DHT22;4594;50.994;7.126;2022-09-17T17:52:57;14.70;50.00
9118;DHT22;4594;50.994;7.126;2022-09-17T17:55:23;14.60;50.00
9118;DHT22;4594;50.994;7.126;2022-09-17T17:57:55;14.50;50.00
9118;DHT22;4594;50.994;7.126;2022-09-17T18:00:22;14.40;49.70
9118;DHT22;4594;50.994;7.126;2022-09-17T18:02:49;14.30;50.00
9118;DHT22;4594;50.994;7.126;2022-09-17T18:05:15;14.20;49.90
9118;DHT22;4594;50.994;7.126;2022-09-17T18:07:41;14.10;50.00
9118;DHT22;4594;50.994;7.126;2022-09-17T18:10:07;14.00;50.00
9118;DHT22;4594;50.994;7.126;2022-09-17T18:12:33;13.90;50.00
9118;DHT22;4594;50.994;7.126;2022-09-17T18:15:00;13.90;50.20
9118;DHT22;4594;50.994;7.126;2022-09-17T18:17:27;13.80;50.30
9118;DHT22;4594;50.994;7.126;2022-09-17T18:19:53;13.80;50.50
9118;DHT22;4594;50.994;7.126;2022-09-17T18:22:20;13.70;50.80
9118;DHT22;4594;50.994;7.126;2022-09-17T18:24:46;13.70;51.10
9118;DHT22;4594;50.994;7.126;2022-09-17T18:27:12;13.70;51.40
9118;DHT22;4594;50.994;7.126;2022-09-17T18:29:37;13.60;51.60
9118;DHT22;4594;50.994;7.126;2022-09-17T18:32:03;13.60;51.80
9118;DHT22;4594;50.994;7.126;2022-09-17T18:34:29;13.60;52.10
9118;DHT22;4594;50.994;7.126;2022-09-17T18:36:56;13.60;52.30
9118;DHT22;4594;50.994;7.126;2022-09-17T18:39:22;13.60;52.60
9118;DHT22;4594;50.994;7.126;2022-09-17T18:41:48;13.60;52.80
9118;DHT22;4594;50.994;7.126;2022-09-17T18:44:14;13.70;53.00
9118;DHT22;4594;50.994;7.126;2022-09-17T18:46:40;13.70;53.20
9118;DHT22;4594;50.994;7.126;2022-09-17T18:49:07;13.70;53.10
9118;DHT22;4594;50.994;7.126;2022-09-17T18:51:33;13.70;53.00
9118;DHT22;4594;50.994;7.126;2022-09-17T18:53:59;13.70;53.00
9118;DHT22;4594;50.994;7.126;2022-09-17T18:56:28;13.70;52.90
9118;DHT22;4594;50.994;7.126;2022-09-17T18:58:56;13.70;52.80
9118;DHT22;4594;50.994;7.126;2022-09-17T19:01:26;13.70;52.80
9118;DHT22;4594;50.994;7.126;2022-09-17T19:03:54;13.70;52.90
9118;DHT22;4594;50.994;7.126;2022-09-17T19:06:21;13.70;52.90
9118;DHT22;4594;50.994;7.126;2022-09-17T19:08:47;13.70;52.90
9118;DHT22;4594;50.994;7.126;2022-09-17T19:11:14;13.70;53.10
9118;DHT22;4594;50.994;7.126;2022-09-17T19:13:42;13.70;53.10
9118;DHT22;4594;50.994;7.126;2022-09-17T19:16:10;13.70;53.10
9118;DHT22;4594;50.994;7.126;2022-09-17T19:18:37;13.60;53.20
9118;DHT22;4594;50.994;7.126;2022-09-17T19:21:13;13.70;53.40
9118;DHT22;4594;50.994;7.126;2022-09-17T19:23:44;13.70;53.30
9118;DHT22;4594;50.994;7.126;2022-09-17T19:26:13;13.70;53.40
9118;DHT22;4594;50.994;7.126;2022-09-17T19:28:41;13.70;53.70
9118;DHT22;4594;50.994;7.126;2022-09-17T19:31:12;13.70;54.00
9118;DHT22;4594;50.994;7.126;2022-09-17T19:33:40;13.80;54.10
9118;DHT22;4594;50.994;7.126;2022-09-17T19:36:09;13.80;54.30
9118;DHT22;4594;50.994;7.126;2022-09-17T19:38:37;13.80;54.30
9118;DHT22;4594;50.994;7.126;2022-09-17T19:41:06;13.80;54.40
9118;DHT22;4594;50.994;7.126;2022-09-17T19:43:34;13.80;54.40
9118;DHT22;4594;50.994;7.126;2022-09-17T19:46:02;13.90;54.60
9118;DHT22;4594;50.994;7.126;2022-09-17T19:48:30;13.90;54.70
9118;DHT22;4594;50.994;7.126;2022-09-17T19:50:57;13.90;54.70
9118;DHT22;4594;50.994;7.126;2022-09-17T19:53:23;14.00;54.70
9118;DHT22;4594;50.994;7.126;2022-09-17T19:55:49;14.00;54.70
9118;DHT22;4594;50.994;7.126;2022-09-17T19:58:15;14.00;54.80
9118;DHT22;4594;50.994;7.126;2022-09-17T20:00:41;14.00;54.80
9118;DHT22;4594;50.994;7.126;2022-09-17T20:03:07;14.00;54.90
9118;DHT22;4594;50.994;7.126;2022-09-17T20:05:33;14.00;54.90